< Cyclone 200108 2004 Season Cyclone 200402 >
Cyclone 200401 (JANA)
General InformationDetailed Track InformationTrack Information on Google MapsList of All Images || ResourceGoogle EarthGE AnimationAtom FeedGeoJSON
Detalied Best Track Wind (Time Zone = UTC)
Year Month Day Hour Lat. Long. Wind (kt) Gust (kt) Direc. of Major Storm Axis Radius of Major Storm Axis (nm) Radius of Minor Storm Axis (nm) Direc. of Major Gale Axis Radius of Major Gale Axis (nm) Radius of Minor Gale Axis (nm) Image
2003 12 6 00 -6.9 93.2 20 40 symmetric - - symmetric - - Image
2003 12 6 06 -7.1 93.8 20 40 symmetric - - symmetric - - Image
2003 12 6 12 -7.3 94.4 25 45 symmetric - - symmetric - - Image
2003 12 6 18 -7.4 95.2 30 45 symmetric - - symmetric - - Image
2003 12 7 00 -7.5 95.9 35 50 symmetric - - symmetric - - Image
2003 12 7 06 -7.7 96.2 40 55 symmetric - - symmetric - - Image
2003 12 7 12 -7.7 96.6 45 65 symmetric - - symmetric - - Image
2003 12 7 18 -7.7 97.1 50 70 symmetric - - symmetric - - Image
2003 12 8 00 -7.8 97.6 55 75 symmetric - - symmetric - - Image
2003 12 8 06 -8.1 98.0 65 90 symmetric - - symmetric - - Image
2003 12 8 12 -8.4 98.7 70 100 symmetric - - symmetric - - Image
2003 12 8 18 -9.0 99.2 75 105 symmetric - - symmetric - - Image
2003 12 9 00 -10.0 99.3 75 105 symmetric - - symmetric - - Image
2003 12 9 06 -11.0 99.4 80 110 symmetric - - symmetric - - Image
2003 12 9 12 -11.9 99.4 85 120 symmetric - - symmetric - - Image
2003 12 9 18 -12.7 99.3 80 110 symmetric - - symmetric - - Image
2003 12 10 00 -13.5 99.2 80 110 symmetric - - symmetric - - Image
2003 12 10 06 -14.0 98.9 75 105 symmetric - - symmetric - - Image
2003 12 10 12 -14.3 98.6 70 100 symmetric - - symmetric - - Image
2003 12 10 18 -14.5 98.1 60 85 symmetric - - symmetric - - Image
2003 12 11 00 -14.6 97.4 50 70 symmetric - - symmetric - - Image
2003 12 11 06 -14.7 96.6 35 50 symmetric - - symmetric - - Image
2003 12 11 12 -14.8 95.6 30 40 symmetric - - symmetric - - Image
2003 12 11 18 -14.8 94.6 25 35 symmetric - - symmetric - - Image
2003 12 12 00 -14.7 93.8 25 35 symmetric - - symmetric - - Image
2003 12 12 06 -14.6 93.0 25 35 symmetric - - symmetric - - Image
< Cyclone 200108 2004 Season Cyclone 200402 >

Help